createdAt,value
2023-03-06T00:00:39.074Z,1.43
2023-03-06T00:03:18.180Z,1.40
2023-03-06T00:05:46.237Z,1.37
2023-03-06T00:08:14.992Z,1.39
2023-03-06T00:10:42.970Z,1.42
2023-03-06T00:13:21.321Z,1.44
2023-03-06T00:15:50.085Z,1.44
2023-03-06T00:18:18.160Z,1.45
2023-03-06T00:20:46.218Z,1.46
2023-03-06T00:23:14.241Z,1.46
2023-03-06T00:25:46.435Z,1.45
2023-03-06T00:28:15.854Z,1.42
2023-03-06T00:30:46.248Z,1.41
2023-03-06T00:33:14.193Z,1.38
2023-03-06T00:35:42.410Z,1.38
2023-03-06T00:38:12.985Z,1.37
2023-03-06T00:40:41.121Z,1.33
2023-03-06T00:43:09.122Z,1.31
2023-03-06T00:45:37.503Z,1.27
2023-03-06T00:48:05.966Z,1.23
2023-03-06T00:50:35.396Z,1.17
2023-03-06T00:53:03.425Z,1.17
2023-03-06T00:55:33.493Z,1.10
2023-03-06T00:58:01.758Z,1.07
2023-03-06T01:00:29.661Z,1.05
2023-03-06T01:02:57.805Z,1.03
2023-03-06T01:05:26.685Z,1.01
2023-03-06T01:07:54.999Z,0.99
2023-03-06T01:10:23.034Z,0.99
2023-03-06T01:12:50.994Z,0.93
2023-03-06T01:15:20.684Z,0.91
2023-03-06T01:17:51.753Z,0.90
2023-03-06T01:20:20.785Z,0.86
2023-03-06T01:22:48.916Z,0.85
2023-03-06T01:25:17.472Z,0.86
2023-03-06T01:27:45.332Z,0.87
2023-03-06T01:30:13.543Z,0.84
2023-03-06T01:32:41.549Z,0.84
2023-03-06T01:35:10.341Z,0.82
2023-03-06T01:37:39.353Z,0.85
2023-03-06T01:40:09.796Z,0.82
2023-03-06T01:42:37.890Z,0.82
2023-03-06T01:45:26.653Z,0.80
2023-03-06T01:47:54.628Z,0.75
2023-03-06T01:50:22.726Z,0.73
2023-03-06T01:52:58.071Z,0.67
2023-03-06T01:55:30.984Z,0.64
2023-03-06T01:58:03.640Z,0.62
2023-03-06T02:00:32.184Z,0.61
2023-03-06T02:03:10.670Z,0.64
2023-03-06T02:05:40.801Z,0.69
2023-03-06T02:08:11.451Z,0.63
2023-03-06T02:11:12.799Z,0.59
2023-03-06T02:13:43.209Z,0.60
2023-03-06T02:16:13.744Z,0.61
2023-03-06T02:18:44.059Z,0.61
2023-03-06T02:21:20.448Z,0.61
2023-03-06T02:24:13.646Z,0.64
2023-03-06T02:26:42.505Z,0.66
2023-03-06T02:29:11.191Z,0.68
2023-03-06T02:31:39.215Z,0.68
2023-03-06T02:34:27.356Z,0.68
2023-03-06T02:37:03.043Z,0.67
2023-03-06T02:39:34.295Z,0.67
2023-03-06T02:42:02.387Z,0.66
2023-03-06T02:44:33.870Z,0.65
2023-03-06T02:47:01.979Z,0.64
2023-03-06T02:49:29.919Z,0.64
2023-03-06T02:51:58.792Z,0.65
2023-03-06T02:54:26.792Z,0.63
2023-03-06T02:56:55.179Z,0.62
2023-03-06T02:59:23.287Z,0.62
2023-03-06T03:01:52.281Z,0.62
2023-03-06T03:04:20.545Z,0.63
2023-03-06T03:06:48.844Z,0.64
2023-03-06T03:09:17.568Z,0.67
2023-03-06T03:11:45.551Z,0.67
2023-03-06T03:14:13.653Z,0.69
2023-03-06T03:16:41.589Z,0.72
2023-03-06T03:19:09.441Z,0.74
2023-03-06T03:21:39.052Z,0.77
2023-03-06T03:24:07.681Z,0.80
2023-03-06T03:26:35.559Z,0.84
2023-03-06T03:29:09.900Z,0.86
2023-03-06T03:31:37.802Z,0.88
2023-03-06T03:34:06.220Z,0.93
2023-03-06T03:36:36.621Z,0.97
2023-03-06T03:39:05.387Z,0.98
2023-03-06T03:41:34.154Z,1.01
2023-03-06T03:44:03.643Z,1.02
2023-03-06T03:46:32.489Z,1.03
2023-03-06T03:49:01.254Z,1.04
2023-03-06T03:51:29.630Z,1.06
2023-03-06T03:53:58.523Z,1.10
2023-03-06T03:56:28.405Z,1.12
2023-03-06T03:59:01.279Z,1.15
2023-03-06T04:01:32.826Z,1.18
2023-03-06T04:04:00.854Z,1.20
2023-03-06T04:06:29.978Z,1.21
2023-03-06T04:08:57.993Z,1.23
2023-03-06T04:11:26.402Z,1.25
2023-03-06T04:13:54.644Z,1.27
2023-03-06T04:16:23.184Z,1.27
2023-03-06T04:18:51.937Z,1.28
2023-03-06T04:21:21.292Z,1.28
2023-03-06T04:23:49.612Z,1.30
2023-03-06T04:26:17.662Z,1.33
2023-03-06T04:28:45.604Z,1.35
2023-03-06T04:31:13.831Z,1.37
2023-03-06T04:33:42.110Z,1.40
2023-03-06T04:36:24.238Z,1.41
2023-03-06T04:38:52.849Z,1.44
2023-03-06T04:41:20.948Z,1.46
2023-03-06T04:43:49.055Z,1.48
2023-03-06T04:46:17.499Z,1.51
2023-03-06T04:48:45.472Z,1.53
2023-03-06T04:51:14.855Z,1.56
2023-03-06T04:53:42.915Z,1.57
2023-03-06T04:56:10.958Z,1.60
2023-03-06T04:58:38.963Z,1.65
2023-03-06T05:01:07.030Z,1.65
2023-03-06T05:03:35.255Z,1.67
2023-03-06T05:06:03.295Z,1.68
2023-03-06T05:08:31.439Z,1.70
2023-03-06T05:11:02.503Z,1.70
2023-03-06T05:13:30.304Z,1.71
2023-03-06T05:16:03.653Z,1.69
2023-03-06T05:18:32.951Z,1.70
2023-03-06T05:21:01.501Z,1.68
2023-03-06T05:23:31.633Z,1.60
2023-03-06T05:25:59.573Z,1.55
2023-03-06T05:28:28.756Z,1.51
2023-03-06T05:30:56.696Z,1.43
2023-03-06T05:33:24.694Z,1.35
2023-03-06T05:35:52.947Z,1.35
2023-03-06T05:38:23.068Z,1.34
2023-03-06T05:40:50.975Z,1.28
2023-03-06T05:43:19.046Z,1.22
2023-03-06T05:45:50.568Z,1.16
2023-03-06T05:48:18.972Z,1.18
2023-03-06T05:50:46.933Z,1.20
2023-03-06T05:53:14.852Z,1.25
2023-03-06T05:55:42.774Z,1.28
2023-03-06T05:58:10.668Z,1.30
2023-03-06T06:00:38.675Z,1.34
2023-03-06T06:03:12.452Z,1.38
2023-03-06T06:05:41.255Z,1.43
2023-03-06T06:08:09.355Z,1.47
2023-03-06T06:10:38.133Z,1.49
2023-03-06T06:13:06.085Z,1.59
2023-03-06T06:15:34.166Z,1.61
2023-03-06T06:18:02.132Z,1.62
2023-03-06T06:20:30.279Z,1.68
2023-03-06T06:22:58.630Z,1.72
2023-03-06T06:25:28.980Z,1.76
2023-03-06T06:27:58.000Z,1.80
2023-03-06T06:30:26.054Z,1.83
2023-03-06T06:32:54.483Z,1.87
2023-03-06T06:35:25.886Z,1.95
2023-03-06T06:37:56.539Z,1.98
2023-03-06T06:40:27.618Z,2.03
2023-03-06T06:42:55.665Z,2.11
2023-03-06T06:45:23.680Z,2.15
2023-03-06T06:47:52.088Z,2.14
2023-03-06T06:50:20.271Z,2.22
2023-03-06T06:52:48.351Z,2.29
2023-03-06T06:55:16.565Z,2.34
2023-03-06T06:57:44.598Z,2.41
2023-03-06T07:00:14.705Z,2.48
2023-03-06T07:02:42.715Z,2.51
2023-03-06T07:05:10.887Z,2.55
2023-03-06T07:07:39.049Z,2.57
2023-03-06T07:10:13.514Z,2.64
2023-03-06T07:12:41.973Z,2.72
2023-03-06T07:15:14.417Z,2.81
2023-03-06T07:17:42.606Z,2.85
2023-03-06T07:20:12.759Z,2.90
2023-03-06T07:22:50.404Z,2.95
2023-03-06T07:25:19.715Z,2.97
2023-03-06T07:27:53.257Z,2.98
2023-03-06T07:30:23.334Z,3.01
2023-03-06T07:32:56.569Z,3.03
2023-03-06T07:35:25.297Z,3.05
2023-03-06T07:37:53.612Z,3.08
2023-03-06T07:40:21.912Z,3.11
2023-03-06T07:42:50.050Z,3.14
2023-03-06T07:45:20.268Z,3.19
2023-03-06T07:47:52.635Z,3.26
2023-03-06T07:50:21.714Z,3.32
2023-03-06T07:52:50.926Z,3.40
2023-03-06T07:55:18.987Z,3.45
2023-03-06T07:57:50.593Z,3.54
2023-03-06T08:00:19.473Z,3.62
2023-03-06T08:02:47.542Z,3.67
2023-03-06T08:05:17.153Z,3.73
2023-03-06T08:07:45.754Z,3.80
2023-03-06T08:10:15.530Z,3.87
2023-03-06T08:12:44.034Z,3.93
2023-03-06T08:15:12.792Z,3.96
2023-03-06T08:17:40.871Z,3.98
2023-03-06T08:20:10.440Z,4.06
2023-03-06T08:22:38.947Z,4.11
2023-03-06T08:25:08.159Z,4.15
2023-03-06T08:27:36.497Z,4.17
2023-03-06T08:30:06.290Z,4.22
2023-03-06T08:32:38.252Z,4.24
2023-03-06T08:35:07.112Z,4.28
2023-03-06T08:37:35.184Z,4.30
2023-03-06T08:40:04.800Z,4.32
2023-03-06T08:42:33.175Z,4.31
2023-03-06T08:45:01.377Z,4.28
2023-03-06T08:47:29.646Z,4.30
2023-03-06T08:50:00.407Z,4.34
2023-03-06T08:52:28.793Z,4.37
2023-03-06T08:54:58.120Z,4.43
2023-03-06T08:57:26.256Z,4.49
2023-03-06T08:59:54.515Z,4.57
2023-03-06T09:02:22.708Z,4.61
2023-03-06T09:04:50.904Z,4.64
2023-03-06T09:07:19.050Z,4.64
2023-03-06T09:09:47.171Z,4.61
2023-03-06T09:12:16.202Z,4.65
2023-03-06T09:14:44.246Z,4.72
2023-03-06T09:17:12.215Z,4.75
2023-03-06T09:19:40.258Z,4.76
2023-03-06T09:22:08.331Z,4.79
2023-03-06T09:24:36.956Z,4.81
2023-03-06T09:27:05.074Z,4.88
2023-03-06T09:29:33.257Z,4.95
2023-03-06T09:32:01.366Z,5.07
2023-03-06T09:34:29.546Z,5.18
2023-03-06T09:36:57.791Z,5.27
2023-03-06T09:39:27.443Z,5.31
2023-03-06T09:41:57.706Z,5.33
2023-03-06T09:44:29.924Z,5.37
2023-03-06T09:47:16.265Z,5.43
2023-03-06T09:50:05.475Z,5.55
2023-03-06T09:52:36.356Z,5.57
2023-03-06T09:55:10.500Z,5.60
2023-03-06T09:57:42.981Z,5.63
2023-03-06T10:00:17.097Z,5.66
2023-03-06T10:02:53.692Z,5.63
2023-03-06T10:05:33.406Z,5.62
2023-03-06T10:08:03.516Z,5.62
2023-03-06T10:10:44.979Z,5.67
2023-03-06T10:13:25.294Z,5.71
2023-03-06T10:15:59.428Z,5.77
2023-03-06T10:18:27.909Z,5.83
2023-03-06T10:21:18.372Z,5.89
2023-03-06T10:23:55.155Z,5.98
2023-03-06T10:26:33.665Z,6.11
2023-03-06T10:29:14.724Z,6.21
2023-03-06T10:31:54.264Z,6.29
2023-03-06T10:34:33.644Z,6.29
2023-03-06T10:37:13.577Z,6.30
2023-03-06T10:39:41.488Z,6.31
2023-03-06T10:42:10.563Z,6.38
2023-03-06T10:44:39.118Z,6.45
2023-03-06T10:47:30.095Z,6.50
2023-03-06T10:50:01.080Z,6.54
2023-03-06T10:52:32.911Z,6.59
2023-03-06T10:55:24.570Z,6.68
2023-03-06T10:57:52.717Z,6.76
2023-03-06T11:00:30.231Z,6.79
2023-03-06T11:03:17.851Z,6.80
2023-03-06T11:06:05.257Z,6.82
2023-03-06T11:08:35.550Z,6.82
2023-03-06T11:11:22.431Z,6.78
2023-03-06T11:13:59.188Z,6.81
2023-03-06T11:16:30.796Z,6.87
2023-03-06T11:19:17.648Z,6.91
2023-03-06T11:22:00.224Z,6.91
2023-03-06T11:24:36.505Z,6.88
2023-03-06T11:27:34.454Z,6.98
2023-03-06T11:30:18.410Z,7.10
2023-03-06T11:32:54.066Z,7.22
2023-03-06T11:35:29.046Z,7.30
2023-03-06T11:38:20.599Z,7.38
2023-03-06T11:41:00.734Z,7.41
2023-03-06T11:43:52.824Z,7.46
2023-03-06T11:46:28.899Z,7.47
2023-03-06T11:49:13.920Z,7.45
2023-03-06T11:51:48.218Z,7.47
2023-03-06T11:54:16.456Z,7.50
2023-03-06T11:56:51.813Z,7.40
2023-03-06T11:59:31.925Z,7.36
2023-03-06T12:02:33.831Z,7.33
2023-03-06T12:05:23.651Z,7.34
2023-03-06T12:08:01.649Z,7.36
2023-03-06T12:10:51.528Z,7.39
2023-03-06T12:13:35.858Z,7.43
2023-03-06T12:16:25.650Z,7.51
2023-03-06T12:19:18.653Z,7.56
2023-03-06T12:22:06.389Z,7.62
2023-03-06T12:25:18.555Z,7.64
2023-03-06T12:28:09.736Z,7.68
2023-03-06T12:30:53.150Z,7.74
2023-03-06T12:33:34.349Z,7.87
2023-03-06T12:36:33.022Z,8.01
2023-03-06T12:39:17.019Z,8.14
2023-03-06T12:42:17.853Z,8.21
2023-03-06T12:45:14.665Z,8.29
2023-03-06T12:47:46.634Z,8.31
2023-03-06T12:50:37.078Z,8.33
2023-03-06T12:53:12.991Z,8.33
2023-03-06T12:55:45.127Z,8.36
2023-03-06T12:58:28.376Z,8.41
2023-03-06T13:01:45.574Z,8.43
2023-03-06T13:04:28.121Z,8.40
2023-03-06T13:07:07.964Z,8.41
2023-03-06T13:10:16.596Z,8.48
2023-03-06T13:12:55.704Z,8.57
2023-03-06T13:15:37.071Z,8.59
2023-03-06T13:18:23.561Z,8.59
2023-03-06T13:20:54.959Z,8.56
2023-03-06T13:23:32.066Z,8.55
2023-03-06T13:26:02.108Z,8.51
2023-03-06T13:28:50.228Z,8.45
2023-03-06T13:31:33.752Z,8.38
2023-03-06T13:34:05.519Z,8.38
2023-03-06T13:36:36.700Z,8.38
2023-03-06T13:39:13.201Z,8.45
2023-03-06T13:41:43.068Z,8.49
2023-03-06T13:44:31.310Z,8.54
2023-03-06T13:47:24.889Z,8.53
2023-03-06T13:49:53.071Z,8.55
2023-03-06T13:52:28.177Z,8.53
2023-03-06T13:55:10.551Z,8.51
2023-03-06T13:57:41.526Z,8.52
2023-03-06T14:00:21.987Z,8.49
2023-03-06T14:03:25.200Z,8.47
2023-03-06T14:05:53.371Z,8.45
2023-03-06T14:08:28.871Z,8.48
2023-03-06T14:11:27.312Z,8.50
2023-03-06T14:13:57.364Z,8.54
2023-03-06T14:16:32.718Z,8.49
2023-03-06T14:19:08.679Z,8.47
2023-03-06T14:21:47.803Z,8.49
2023-03-06T14:24:19.363Z,8.53
2023-03-06T14:26:50.569Z,8.57
2023-03-06T14:29:22.859Z,8.56
2023-03-06T14:31:56.197Z,8.53
2023-03-06T14:34:28.576Z,8.51
2023-03-06T14:37:08.275Z,8.51
2023-03-06T14:39:41.834Z,8.52
2023-03-06T14:42:15.666Z,8.49
2023-03-06T14:44:44.960Z,8.50
2023-03-06T14:47:26.584Z,8.48
2023-03-06T14:50:20.180Z,8.46
2023-03-06T14:52:49.866Z,8.39
2023-03-06T14:55:24.003Z,8.38
2023-03-06T14:57:58.163Z,8.33
2023-03-06T15:00:41.391Z,8.32
2023-03-06T15:03:26.460Z,8.30
2023-03-06T15:05:56.987Z,8.23
2023-03-06T15:08:30.562Z,8.18
2023-03-06T15:11:03.348Z,8.15
2023-03-06T15:13:32.899Z,8.14
2023-03-06T15:16:02.402Z,8.14
2023-03-06T15:18:56.367Z,8.13
2023-03-06T15:21:26.863Z,8.13
2023-03-06T15:23:57.523Z,8.11
2023-03-06T15:26:34.008Z,8.11
2023-03-06T15:29:11.399Z,8.10
2023-03-06T15:31:48.663Z,8.07
2023-03-06T15:34:23.758Z,8.03
2023-03-06T15:36:57.558Z,8.00
2023-03-06T15:39:36.579Z,8.00
2023-03-06T15:42:07.269Z,8.00
2023-03-06T15:44:35.416Z,7.99
2023-03-06T15:47:08.801Z,7.93
2023-03-06T15:49:38.971Z,7.92
2023-03-06T15:52:08.080Z,7.89
2023-03-06T15:54:36.889Z,7.87
2023-03-06T15:57:07.357Z,7.86
2023-03-06T15:59:43.979Z,7.83
2023-03-06T16:02:18.474Z,7.83
2023-03-06T16:04:47.628Z,7.79
2023-03-06T16:07:15.916Z,7.75
2023-03-06T16:09:44.920Z,7.73
2023-03-06T16:12:17.480Z,7.69
2023-03-06T16:14:51.419Z,7.63
2023-03-06T16:17:19.419Z,7.61
2023-03-06T16:19:47.459Z,7.59
2023-03-06T16:22:15.332Z,7.58
2023-03-06T16:24:43.334Z,7.57
2023-03-06T16:27:18.966Z,7.54
2023-03-06T16:29:47.302Z,7.52
2023-03-06T16:32:15.362Z,7.51
2023-03-06T16:34:43.765Z,7.47
2023-03-06T16:37:14.339Z,7.45
2023-03-06T16:39:42.724Z,7.45
2023-03-06T16:42:11.592Z,7.44
2023-03-06T16:44:39.914Z,7.44
2023-03-06T16:47:12.521Z,7.44
2023-03-06T16:49:40.696Z,7.44
2023-03-06T16:52:11.504Z,7.42
2023-03-06T16:54:39.449Z,7.43
2023-03-06T16:57:07.489Z,7.42
2023-03-06T16:59:35.557Z,7.41
2023-03-06T17:02:03.819Z,7.40
2023-03-06T17:04:34.420Z,7.37
2023-03-06T17:07:03.238Z,7.35
2023-03-06T17:09:31.766Z,7.31
2023-03-06T17:12:00.042Z,7.28
2023-03-06T17:14:28.191Z,7.27
2023-03-06T17:16:56.372Z,7.26
2023-03-06T17:19:24.498Z,7.22
2023-03-06T17:21:52.605Z,7.18
2023-03-06T17:24:20.905Z,7.14
2023-03-06T17:26:49.051Z,7.12
2023-03-06T17:29:17.310Z,7.10
2023-03-06T17:31:46.816Z,7.06
2023-03-06T17:34:15.101Z,7.00
2023-03-06T17:36:44.170Z,6.98
2023-03-06T17:39:13.104Z,6.96
2023-03-06T17:41:46.237Z,6.92
2023-03-06T17:44:19.927Z,6.90
2023-03-06T17:46:48.413Z,6.88
2023-03-06T17:49:23.361Z,6.87
2023-03-06T17:51:52.546Z,6.84
2023-03-06T17:54:21.376Z,6.81
2023-03-06T17:56:55.104Z,6.83
2023-03-06T17:59:23.195Z,6.83
2023-03-06T18:01:57.504Z,6.81
2023-03-06T18:04:32.495Z,6.79
2023-03-06T18:07:00.752Z,6.79
2023-03-06T18:09:29.723Z,6.79
2023-03-06T18:11:57.874Z,6.80
2023-03-06T18:14:25.917Z,6.80
2023-03-06T18:16:54.660Z,6.80
2023-03-06T18:19:22.834Z,6.80
2023-03-06T18:21:51.009Z,6.80
2023-03-06T18:24:19.076Z,6.81
2023-03-06T18:26:47.239Z,6.79
2023-03-06T18:29:15.279Z,6.79
2023-03-06T18:31:50.078Z,6.79
2023-03-06T18:34:18.596Z,6.80
2023-03-06T18:36:52.038Z,6.83
2023-03-06T18:39:21.546Z,6.83
2023-03-06T18:41:49.824Z,6.85
2023-03-06T18:44:19.137Z,6.86
2023-03-06T18:46:49.734Z,6.90
2023-03-06T18:49:18.036Z,6.95
2023-03-06T18:51:50.220Z,6.98
2023-03-06T18:54:18.668Z,7.00
2023-03-06T18:56:46.689Z,7.01
2023-03-06T18:59:18.517Z,7.02
2023-03-06T19:01:47.911Z,7.01
2023-03-06T19:04:23.741Z,7.05
2023-03-06T19:06:55.694Z,7.07
2023-03-06T19:09:24.407Z,7.09
2023-03-06T19:11:54.851Z,7.12
2023-03-06T19:14:23.249Z,7.12
2023-03-06T19:16:51.516Z,7.12
2023-03-06T19:19:19.926Z,7.17
2023-03-06T19:21:48.054Z,7.18
2023-03-06T19:24:16.395Z,7.19
2023-03-06T19:26:44.561Z,7.20
2023-03-06T19:29:12.700Z,7.20
2023-03-06T19:31:42.271Z,7.19
2023-03-06T19:34:10.704Z,7.19
2023-03-06T19:36:41.010Z,7.17
2023-03-06T19:39:09.602Z,7.12
2023-03-06T19:41:37.651Z,7.13
2023-03-06T19:44:06.134Z,7.09
2023-03-06T19:46:36.223Z,7.09
2023-03-06T19:49:11.783Z,7.06
2023-03-06T19:51:39.975Z,7.03
2023-03-06T19:54:09.593Z,7.03
2023-03-06T19:56:37.671Z,7.04
2023-03-06T19:59:05.569Z,7.03
2023-03-06T20:01:34.555Z,7.01
2023-03-06T20:04:03.401Z,6.93
2023-03-06T20:06:33.767Z,6.92
2023-03-06T20:09:05.288Z,6.90
2023-03-06T20:11:33.372Z,6.87
2023-03-06T20:14:03.737Z,6.74
2023-03-06T20:16:32.701Z,6.68
2023-03-06T20:19:01.438Z,6.65
2023-03-06T20:21:32.194Z,6.61
2023-03-06T20:24:00.155Z,6.54
2023-03-06T20:26:29.403Z,6.48
2023-03-06T20:28:57.837Z,6.40
2023-03-06T20:31:28.559Z,6.30
2023-03-06T20:33:58.628Z,6.25
2023-03-06T20:36:30.234Z,6.22
2023-03-06T20:39:03.064Z,6.22
2023-03-06T20:41:31.893Z,6.22
2023-03-06T20:44:02.149Z,6.16
2023-03-06T20:46:30.679Z,6.13
2023-03-06T20:48:59.686Z,6.12
2023-03-06T20:51:33.458Z,6.03
2023-03-06T20:54:02.231Z,6.02
2023-03-06T20:56:35.507Z,6.04
2023-03-06T20:59:11.644Z,6.01
2023-03-06T21:01:45.430Z,5.96
2023-03-06T21:04:14.888Z,5.91
2023-03-06T21:06:47.236Z,5.89
2023-03-06T21:09:17.422Z,5.91
2023-03-06T21:11:46.279Z,5.87
2023-03-06T21:14:15.041Z,5.82
2023-03-06T21:16:43.955Z,5.81
2023-03-06T21:19:11.921Z,5.76
2023-03-06T21:21:39.827Z,5.75
2023-03-06T21:24:08.371Z,5.74
2023-03-06T21:26:36.544Z,5.71
2023-03-06T21:29:04.918Z,5.71
2023-03-06T21:31:33.600Z,5.67
2023-03-06T21:34:04.499Z,5.68
2023-03-06T21:36:33.536Z,5.66
2023-03-06T21:39:01.453Z,5.67
2023-03-06T21:41:31.289Z,5.65
2023-03-06T21:44:01.820Z,5.61
2023-03-06T21:46:30.191Z,5.61
2023-03-06T21:48:59.054Z,5.60
2023-03-06T21:51:27.120Z,5.61
2023-03-06T21:53:55.862Z,5.63
2023-03-06T21:56:25.438Z,5.63
2023-03-06T21:58:54.348Z,5.64
2023-03-06T22:01:28.506Z,5.65
2023-03-06T22:03:58.786Z,5.65
2023-03-06T22:06:28.626Z,5.71
2023-03-06T22:08:58.350Z,5.69
2023-03-06T22:11:29.832Z,5.70
2023-03-06T22:13:58.240Z,5.67
2023-03-06T22:16:26.360Z,5.65
2023-03-06T22:18:54.384Z,5.67
2023-03-06T22:21:23.449Z,5.63
2023-03-06T22:23:54.630Z,5.61
2023-03-06T22:26:23.746Z,5.59
2023-03-06T22:28:52.159Z,5.60
2023-03-06T22:31:25.695Z,5.62
2023-03-06T22:33:55.064Z,5.65
2023-03-06T22:36:24.177Z,5.63
2023-03-06T22:38:58.612Z,5.62
2023-03-06T22:41:27.390Z,5.60
2023-03-06T22:43:57.168Z,5.59
2023-03-06T22:46:25.871Z,5.59
2023-03-06T22:49:01.570Z,5.59
2023-03-06T22:51:29.810Z,5.58
2023-03-06T22:53:58.339Z,5.57
2023-03-06T22:56:26.336Z,5.54
2023-03-06T22:58:54.427Z,5.52
2023-03-06T23:01:25.348Z,5.50
2023-03-06T23:03:54.668Z,5.49
2023-03-06T23:06:28.589Z,5.47
2023-03-06T23:09:08.946Z,5.46
2023-03-06T23:11:55.539Z,5.44
2023-03-06T23:14:41.935Z,5.46
2023-03-06T23:17:28.688Z,5.52
2023-03-06T23:20:15.280Z,5.52
2023-03-06T23:23:02.047Z,5.51
2023-03-06T23:25:43.627Z,5.45
2023-03-06T23:28:11.971Z,5.41
2023-03-06T23:30:40.176Z,5.40
2023-03-06T23:33:08.638Z,5.39
2023-03-06T23:35:39.159Z,5.39
2023-03-06T23:38:07.371Z,5.40
2023-03-06T23:40:37.326Z,5.40
2023-03-06T23:43:05.980Z,5.38
2023-03-06T23:45:34.422Z,5.39
2023-03-06T23:48:02.321Z,5.40
2023-03-06T23:50:30.402Z,5.41
2023-03-06T23:52:58.275Z,5.41
2023-03-06T23:55:26.230Z,5.41
2023-03-06T23:57:54.444Z,5.42
